UUEE/SVO METAR and TAF weather

Enter ICAO airport designator
Station Type Date Time Source
UUEE METAR 2020/12/05 06:00 UTC NOAA

UUEE 050600Z 16004MPS 9000 OVC006 M05/M07 Q1035 R24L/290051 R24R/290051 NOSIG


Station Type Date Time Source
UUEE Decoded METAR 2020/12/05 06:00 UTC NOAA

Moscow / Sheremet'Ye , Russia (UUEE) 55-59N 037-30E
Dec 05, 2020 - 01:00 AM EST / 2020.12.05 0600 UTC
Wind: from the SSE (160 degrees) at 9 MPH (8 KT):0
Visibility: 5 mile(s):0
Sky conditions: overcast
Temperature: 23 F (-5 C)
Windchill: 14 F (-10 C):1
Dew Point: 19 F (-7 C)
Relative Humidity: 85%
Pressure (altimeter): 30.56 in. Hg (1035 hPa)
ob: UUEE 050600Z 16004MPS 9000 OVC006 M05/M07 Q1035 R24L/290051 R24R/290051 NOSIG
cycle: 6

Station Type Date Time Source
UUEE TAF 2020/12/05 06:21 UTC NOAA

TAF UUEE 050451Z 0506/0606 16004G09MPS 9999 BKN008 TXM03/0512Z TNM09/0603Z PROB40
TEMPO 0506/0508 -FZDZ SCT004
BECMG 0507/0509 SCT016

Example: see airport list